Main page
METAR-TAF:

METAR-TAF

Airports :

Kunming Changshui International Airport

Kunming, China

latitude: 25-01N, longitude: 102-41E, elevation: 1892 m

Current weather observation

The report was made 11 minutes ago, at 10:00 UTC
Wind 8 kt from the South/Southwest
Temperature 20°C
Humidity 88%
Pressure 1012 hPa
Visibility 10 km or more
Few clouds at a height of 2300 ft, Towering cumulus.
Scattered clouds at a height of 2300 ft
Broken clouds at a height of 4600 ft
light rain showers

METAR: ZPPP 231000Z 21004MPS 9999 -SHRA FEW023TCU SCT023 BKN046 20/18 Q1012 BECMG TL1100 TS

Time: 18:11 (10:11 UTC)

Forecast

The report was made 8 hours and 58 minutes ago, at 01:13 UTC
Forecast valid from 23 at 06 UTC to 24 at 06 UTC
Wind 8 kt from the Northeast
Visibility: 4000 m
Scattered clouds at a height of 2000 ft
Broken clouds at a height of 3300 ft
light rain showers, mist

TAF: ZPPP 230113Z 2306/2406 04004MPS 4000 -SHRA BR SCT020 BKN033 TX20/2308Z TN14/2323Z

Weather observations and forecasts of more than 4000 airports (METAR and TAF reports).

The available stations are represented by yellow and red dots on the map.

Hover mouse over dot to see the name of the station.

Then click to see weather observations and forecasts.

To change the map : click on the green buttons with a black cross to zoom in, on the green button with a dash to zoom out, or on the green arrows for adjacent maps.


METAR-TAF: